Time;durP1;ratioP1;P1;durP2;ratioP2;P2;SDS_P1;SDS_P2;PMS_P1;PMS_P2;Temp;Humidity;BMP_temperature;BMP_pressure;BME280_temperature;BME280_humidity;BME280_pressure;Samples;Min_cycle;Max_cycle;Signal;HPM_P1;HPM_P2
2023/05/03 00:00:47;;;;;;;7.22;2.72;;;;;;;4.70;100.00;102734.63;4990119;28;20036;-67
2023/05/03 00:03:13;;;;;;;3.25;2.65;;;;;;;4.67;100.00;102729.25;4974011;28;20026;-67
2023/05/03 00:05:38;;;;;;;6.13;3.00;;;;;;;4.67;100.00;102732.72;4990741;28;20424;-67
2023/05/03 00:08:04;;;;;;;5.47;2.97;;;;;;;4.67;100.00;102731.81;4974114;28;20018;-67
2023/05/03 00:10:29;;;;;;;4.50;2.60;;;;;;;4.66;100.00;102727.41;4984568;28;20278;-66
2023/05/03 00:12:55;;;;;;;4.60;2.80;;;;;;;4.68;100.00;102728.47;4991562;28;20030;-66
2023/05/03 00:15:21;;;;;;;4.70;2.90;;;;;;;4.71;100.00;102731.31;4973748;28;20054;-66
2023/05/03 00:17:46;;;;;;;3.90;2.27;;;;;;;4.70;100.00;102729.50;4979154;28;20031;-66
2023/05/03 00:20:11;;;;;;;4.60;2.95;;;;;;;4.67;100.00;102718.97;4991810;28;20068;-65
2023/05/03 00:22:37;;;;;;;5.07;2.80;;;;;;;4.66;100.00;102725.75;4992222;28;20500;-65
2023/05/03 00:25:03;;;;;;;3.20;2.85;;;;;;;4.63;100.00;102727.16;4979363;28;20027;-65
2023/05/03 00:27:29;;;;;;;4.32;2.90;;;;;;;4.61;100.00;102728.69;4991633;28;20109;-65
2023/05/03 00:29:54;;;;;;;6.95;3.60;;;;;;;4.56;100.00;102730.88;4979957;28;20531;-65
2023/05/03 00:32:21;;;;;;;4.00;2.95;;;;;;;4.52;100.00;102727.13;4978667;28;20105;-66
2023/05/03 00:34:52;;;;;;;4.57;2.97;;;;;;;4.48;100.00;102725.06;4991533;28;20026;-66
2023/05/03 00:37:18;;;;;;;4.80;3.05;;;;;;;4.45;100.00;102729.94;4972822;28;20030;-66
2023/05/03 00:39:43;;;;;;;4.38;2.70;;;;;;;4.41;100.00;102726.19;4972471;28;20368;-66
2023/05/03 00:42:08;;;;;;;4.60;2.90;;;;;;;4.40;100.00;102719.28;4955340;28;20027;-66
2023/05/03 00:44:33;;;;;;;4.82;3.05;;;;;;;4.40;100.00;102723.50;4986073;28;20022;-66
2023/05/03 00:46:59;;;;;;;4.97;3.40;;;;;;;4.37;100.00;102726.69;4990928;28;20524;-65
2023/05/03 00:49:25;;;;;;;6.05;3.22;;;;;;;4.33;100.00;102725.50;4990538;28;20026;-66
2023/05/03 00:51:52;;;;;;;3.40;2.92;;;;;;;4.32;100.00;102736.56;4980253;28;20030;-66
2023/05/03 00:54:18;;;;;;;6.72;3.10;;;;;;;4.30;100.00;102732.06;4974874;28;20458;-65
2023/05/03 00:56:43;;;;;;;4.15;3.03;;;;;;;4.25;100.00;102734.22;4954513;28;20041;-65
2023/05/03 00:59:10;;;;;;;3.28;2.70;;;;;;;4.24;100.00;102723.81;4988603;28;20061;-65
2023/05/03 01:01:36;;;;;;;5.50;3.07;;;;;;;4.21;100.00;102732.13;4991429;28;20479;-65
2023/05/03 01:04:03;;;;;;;3.78;2.90;;;;;;;4.20;100.00;102720.06;4974071;28;20033;-65
2023/05/03 01:06:37;;;;;;;4.93;2.57;;;;;;;4.17;100.00;102727.50;4972079;28;20437;-65
2023/05/03 01:09:07;;;;;;;3.70;2.63;;;;;;;4.13;100.00;102717.72;4984377;28;20045;-65
2023/05/03 01:11:59;;;;;;;4.50;2.90;;;;;;;4.11;100.00;102711.56;4971967;28;20050;-65
2023/05/03 01:14:40;;;;;;;5.23;2.70;;;;;;;4.10;100.00;102722.59;4983597;28;20042;-66
2023/05/03 01:17:11;;;;;;;4.47;2.67;;;;;;;4.09;100.00;102724.25;4984280;28;20025;-65
2023/05/03 01:19:43;;;;;;;5.30;3.10;;;;;;;4.08;100.00;102718.22;4978470;28;20501;-66
2023/05/03 01:22:30;;;;;;;5.33;3.20;;;;;;;4.06;100.00;102724.00;4977439;28;20626;-65
2023/05/03 01:25:10;;;;;;;5.50;3.10;;;;;;;4.02;100.00;102722.81;4990525;28;20054;-66
2023/05/03 01:27:36;;;;;;;4.40;2.67;;;;;;;4.02;100.00;102727.03;4990634;28;20177;-65
2023/05/03 01:30:09;;;;;;;4.07;3.03;;;;;;;3.99;100.00;102734.47;4989821;28;20441;-66
2023/05/03 01:32:51;;;;;;;6.40;2.70;;;;;;;3.95;100.00;102739.34;4990156;28;20026;-66
2023/05/03 01:35:36;;;;;;;5.47;2.80;;;;;;;3.93;100.00;102737.38;4989714;28;20025;-65
2023/05/03 01:38:03;;;;;;;5.63;3.03;;;;;;;3.88;100.00;102734.41;4989058;28;20097;-65
2023/05/03 01:40:34;;;;;;;4.77;3.27;;;;;;;3.84;100.00;102730.66;4978042;28;20053;-65
2023/05/03 01:43:02;;;;;;;5.35;2.72;;;;;;;3.84;100.00;102740.94;4971920;28;20030;-66
2023/05/03 01:45:27;;;;;;;5.03;3.07;;;;;;;3.82;100.00;102728.72;4989704;28;20464;-66
2023/05/03 01:47:54;;;;;;;3.93;3.03;;;;;;;3.79;100.00;102734.50;4987841;28;20030;-65
2023/05/03 01:50:20;;;;;;;4.03;2.80;;;;;;;3.77;100.00;102737.66;4989823;28;20120;-66
2023/05/03 01:52:45;;;;;;;5.10;3.23;;;;;;;3.74;100.00;102740.88;4974834;28;20051;-66
2023/05/03 01:55:10;;;;;;;5.33;3.37;;;;;;;3.71;100.00;102735.44;4981934;28;20494;-65
2023/05/03 01:57:36;;;;;;;5.57;3.27;;;;;;;3.67;100.00;102738.50;4989408;28;20479;-65
2023/05/03 02:00:01;;;;;;;4.50;3.03;;;;;;;3.65;100.00;102732.34;4990237;28;20443;-65
2023/05/03 02:02:26;;;;;;;6.93;2.83;;;;;;;3.62;100.00;102737.19;4972709;28;20522;-65
2023/05/03 02:04:52;;;;;;;4.33;3.30;;;;;;;3.57;100.00;102727.41;4982015;28;20137;-65
2023/05/03 02:07:17;;;;;;;4.53;3.33;;;;;;;3.56;100.00;102740.97;4978077;28;20051;-65
2023/05/03 02:09:43;;;;;;;4.60;2.93;;;;;;;3.54;100.00;102736.47;4983164;28;20394;-65
2023/05/03 02:12:10;;;;;;;6.00;3.00;;;;;;;3.51;100.00;102731.97;4970738;28;20050;-65
2023/05/03 02:14:35;;;;;;;5.83;3.63;;;;;;;3.50;100.00;102734.38;4970272;28;20043;-66
2023/05/03 02:17:02;;;;;;;4.20;3.60;;;;;;;3.47;100.00;102735.91;4983490;28;20048;-66
2023/05/03 02:19:27;;;;;;;5.23;3.37;;;;;;;3.41;100.00;102730.22;4970165;28;20102;-65
2023/05/03 02:21:52;;;;;;;5.30;3.30;;;;;;;3.42;100.00;102732.03;4970287;28;20031;-66
2023/05/03 02:24:18;;;;;;;6.83;3.93;;;;;;;3.38;100.00;102724.84;4969774;28;20109;-65
2023/05/03 02:26:44;;;;;;;4.33;3.17;;;;;;;3.36;100.00;102727.22;4983052;28;20030;-65
2023/05/03 02:29:09;;;;;;;3.73;3.10;;;;;;;3.33;100.00;102721.81;4977432;28;20329;-66
2023/05/03 02:31:35;;;;;;;8.90;3.27;;;;;;;3.31;100.00;102718.22;4976046;28;20082;-65
2023/05/03 02:34:00;;;;;;;9.57;3.50;;;;;;;3.31;100.00;102715.66;4970548;28;20054;-65
2023/05/03 02:36:26;;;;;;;6.63;3.60;;;;;;;3.29;100.00;102714.59;4970354;28;20106;-65
2023/05/03 02:38:51;;;;;;;6.53;3.47;;;;;;;3.28;100.00;102707.69;4969894;28;20026;-66
2023/05/03 02:41:16;;;;;;;6.77;3.67;;;;;;;3.26;100.00;102706.63;4970312;28;20038;-65
2023/05/03 02:43:42;;;;;;;5.53;3.50;;;;;;;3.30;100.00;102701.06;4970263;28;20023;-65
2023/05/03 02:46:07;;;;;;;4.57;3.20;;;;;;;3.34;100.00;102697.09;4970138;28;20023;-66
2023/05/03 02:48:32;;;;;;;4.90;3.20;;;;;;;3.36;100.00;102698.16;4969743;28;20062;-65
2023/05/03 02:50:58;;;;;;;5.57;3.63;;;;;;;3.36;100.00;102691.34;4982554;28;20032;-66
2023/05/03 02:53:23;;;;;;;4.10;3.10;;;;;;;3.38;100.00;102688.03;4969968;28;20496;-65
2023/05/03 02:55:49;;;;;;;6.73;3.63;;;;;;;3.38;100.00;102682.91;4982565;28;20019;-66
2023/05/03 02:58:14;;;;;;;6.53;3.53;;;;;;;3.40;100.00;102678.81;4979810;28;20141;-66
2023/05/03 03:00:40;;;;;;;5.20;3.40;;;;;;;3.45;100.00;102669.88;4988322;28;20079;-65
2023/05/03 03:03:05;;;;;;;6.63;3.87;;;;;;;3.46;100.00;102664.00;4989029;28;20034;-65
2023/05/03 03:05:31;;;;;;;5.43;3.97;;;;;;;3.47;100.00;102663.25;4985272;28;20472;-65
2023/05/03 03:07:57;;;;;;;4.80;3.67;;;;;;;3.48;100.00;102670.16;4969991;28;20022;-66
2023/05/03 03:10:22;;;;;;;5.60;3.73;;;;;;;3.50;100.00;102668.63;4979898;28;20383;-65
2023/05/03 03:12:47;;;;;;;4.83;4.10;;;;;;;3.51;100.00;102680.69;4971480;28;20135;-65
2023/05/03 03:15:12;;;;;;;5.40;3.23;;;;;;;3.51;100.00;102680.69;4969632;28;20051;-66
2023/05/03 03:17:38;;;;;;;6.20;4.17;;;;;;;3.51;100.00;102696.06;4969499;28;20049;-65
2023/05/03 03:20:10;;;;;;;5.03;3.80;;;;;;;3.52;100.00;102695.31;4969597;28;20035;-65
2023/05/03 03:22:36;;;;;;;4.37;3.67;;;;;;;3.53;100.00;102688.50;4987784;28;20497;-66
2023/05/03 03:25:01;;;;;;;5.27;4.17;;;;;;;3.53;100.00;102688.50;4976325;28;20050;-65
2023/05/03 03:27:26;;;;;;;6.33;3.77;;;;;;;3.54;100.00;102691.25;4974987;28;20022;-66
2023/05/03 03:29:51;;;;;;;4.90;3.67;;;;;;;3.54;100.00;102696.38;4959129;28;20027;-66
2023/05/03 03:32:17;;;;;;;8.00;3.53;;;;;;;3.52;100.00;102700.44;4986740;28;20460;-65
2023/05/03 03:34:42;;;;;;;6.03;3.33;;;;;;;3.49;100.00;102707.84;4988353;28;20018;-66
2023/05/03 03:37:07;;;;;;;4.53;3.43;;;;;;;3.48;100.00;102700.94;4988059;28;20026;-66
2023/05/03 03:39:33;;;;;;;7.13;3.73;;;;;;;3.44;100.00;102702.31;4971089;28;20018;-65
2023/05/03 03:41:59;;;;;;;5.00;3.97;;;;;;;3.43;100.00;102697.94;4988340;28;20213;-65
2023/05/03 03:44:24;;;;;;;4.33;3.93;;;;;;;3.40;100.00;102696.78;4988514;28;20553;-65
2023/05/03 03:46:49;;;;;;;5.53;4.47;;;;;;;3.34;100.00;102692.88;4988442;28;20023;-66
2023/05/03 03:49:14;;;;;;;5.27;3.73;;;;;;;3.30;100.00;102684.75;4988480;28;20463;-66
2023/05/03 03:51:40;;;;;;;8.63;4.17;;;;;;;3.25;100.00;102686.91;4987667;28;20122;-65
2023/05/03 03:54:05;;;;;;;7.00;3.80;;;;;;;3.20;100.00;102683.91;4974720;28;20111;-65
2023/05/03 03:56:30;;;;;;;5.63;3.97;;;;;;;3.17;100.00;102685.28;4985984;28;20402;-66
2023/05/03 03:58:56;;;;;;;7.27;4.27;;;;;;;3.14;100.00;102683.38;4986405;28;20442;-65
2023/05/03 04:01:21;;;;;;;4.67;4.10;;;;;;;3.15;100.00;102686.84;4985819;28;20018;-65
2023/05/03 04:03:47;;;;;;;9.90;4.50;;;;;;;3.14;100.00;102685.94;4985622;28;20080;-65
2023/05/03 04:06:12;;;;;;;9.13;4.70;;;;;;;3.14;100.00;102698.75;4983832;28;20045;-65
2023/05/03 04:08:37;;;;;;;6.30;4.00;;;;;;;3.15;100.00;102699.66;4976031;28;20030;-65
2023/05/03 04:11:03;;;;;;;6.40;4.53;;;;;;;3.16;100.00;102699.78;4986830;28;20073;-65
2023/05/03 04:13:28;;;;;;;8.00;4.03;;;;;;;3.14;100.00;102705.50;4987956;28;20610;-66
2023/05/03 04:15:55;;;;;;;6.07;4.60;;;;;;;3.11;100.00;102701.91;4987802;28;20475;-65
2023/05/03 04:18:21;;;;;;;7.03;4.23;;;;;;;3.12;100.00;102713.06;4987581;28;20026;-66
2023/05/03 04:20:46;;;;;;;6.07;4.13;;;;;;;3.10;100.00;102705.25;4987513;28;20030;-65
2023/05/03 04:23:11;;;;;;;6.67;4.07;;;;;;;3.09;100.00;102706.00;4987923;28;20090;-66
2023/05/03 04:25:37;;;;;;;6.67;3.80;;;;;;;3.08;100.00;102701.63;4984487;28;20042;-66
2023/05/03 04:28:03;;;;;;;5.87;4.40;;;;;;;3.07;100.00;102702.41;4978596;28;20287;-67
2023/05/03 04:30:29;;;;;;;4.57;4.17;;;;;;;3.04;100.00;102707.22;4986954;28;20030;-67
2023/05/03 04:32:57;;;;;;;5.33;3.53;;;;;;;3.03;100.00;102710.56;4987211;28;20034;-66
2023/05/03 04:35:22;;;;;;;7.90;4.50;;;;;;;3.00;100.00;102712.84;4986605;28;20451;-66
2023/05/03 04:37:47;;;;;;;5.60;4.10;;;;;;;2.98;100.00;102711.78;4986270;28;20070;-66
2023/05/03 04:40:13;;;;;;;6.57;4.33;;;;;;;2.98;100.00;102712.69;4972092;28;20415;-66
2023/05/03 04:42:38;;;;;;;6.33;4.43;;;;;;;3.00;100.00;102721.41;4983111;28;20038;-66
2023/05/03 04:45:08;;;;;;;6.70;4.77;;;;;;;3.06;100.00;102725.31;4986451;28;20035;-66
2023/05/03 04:47:34;;;;;;;5.40;4.90;;;;;;;3.12;100.00;102734.47;4986622;28;20182;-66
2023/05/03 04:50:00;;;;;;;6.83;5.13;;;;;;;3.16;100.00;102737.31;4974140;28;20350;-66
2023/05/03 04:52:26;;;;;;;7.03;4.70;;;;;;;3.22;100.00;102740.47;4984993;28;20394;-66
2023/05/03 04:54:51;;;;;;;7.63;4.77;;;;;;;3.24;100.00;102746.59;4979699;28;20033;-66
2023/05/03 04:57:17;;;;;;;6.30;4.83;;;;;;;3.27;100.00;102751.13;4990491;28;20054;-66
2023/05/03 04:59:42;;;;;;;8.60;5.03;;;;;;;3.30;100.00;102757.44;4991090;28;20057;-66
2023/05/03 05:02:07;;;;;;;9.03;4.87;;;;;;;3.34;100.00;102758.63;4978061;28;20066;-66
2023/05/03 05:04:33;;;;;;;7.13;4.67;;;;;;;3.38;100.00;102772.63;4982905;28;20606;-66
2023/05/03 05:06:58;;;;;;;6.47;4.83;;;;;;;3.43;100.00;102771.38;4975578;28;20030;-66
2023/05/03 05:09:26;;;;;;;6.40;4.97;;;;;;;3.47;100.00;102770.91;4984376;28;20043;-66
2023/05/03 05:11:51;;;;;;;8.10;5.23;;;;;;;3.52;100.00;102777.38;4954268;28;20518;-66
2023/05/03 05:14:17;;;;;;;7.63;5.85;;;;;;;3.57;100.00;102773.56;4970477;28;20043;-66
2023/05/03 05:16:42;;;;;;;7.80;7.00;;;;;;;3.64;100.00;102771.53;4971550;28;20037;-66
2023/05/03 05:19:07;;;;;;;9.07;6.43;;;;;;;3.71;100.00;102776.47;4971792;28;20019;-66
2023/05/03 05:21:33;;;;;;;8.60;6.07;;;;;;;3.79;100.00;102772.06;4980660;28;20026;-66
2023/05/03 05:23:58;;;;;;;9.25;5.80;;;;;;;3.85;100.00;102770.03;4979669;28;20027;-66
2023/05/03 05:26:24;;;;;;;9.00;5.47;;;;;;;3.96;100.00;102778.69;4978540;28;20144;-66
2023/05/03 05:28:50;;;;;;;5.57;4.65;;;;;;;4.04;100.00;102777.75;4982671;28;20029;-66
2023/05/03 05:31:15;;;;;;;7.03;5.32;;;;;;;4.15;100.00;102770.09;4982147;28;20101;-66
2023/05/03 05:33:41;;;;;;;9.43;5.17;;;;;;;4.28;100.00;102772.09;4986264;28;20046;-66
2023/05/03 05:36:06;;;;;;;8.95;4.90;;;;;;;4.39;100.00;102776.50;4975476;28;20463;-67
2023/05/03 05:38:31;;;;;;;8.30;5.20;;;;;;;4.49;100.00;102773.09;4976478;28;20073;-66
2023/05/03 05:40:57;;;;;;;8.95;5.53;;;;;;;4.61;100.00;102772.34;4975847;28;20026;-66
2023/05/03 05:43:22;;;;;;;9.43;4.97;;;;;;;4.71;100.00;102767.28;4975429;28;20019;-66
2023/05/03 05:45:48;;;;;;;5.38;4.78;;;;;;;4.85;100.00;102767.56;4974287;28;20019;-66
2023/05/03 05:48:13;;;;;;;9.88;4.82;;;;;;;4.92;100.00;102769.91;4973441;28;20018;-66
2023/05/03 05:50:38;;;;;;;6.20;4.68;;;;;;;4.99;100.00;102763.59;4972956;28;20054;-66
2023/05/03 05:53:04;;;;;;;8.07;4.85;;;;;;;5.04;100.00;102760.66;4960749;28;20117;-66
2023/05/03 05:55:29;;;;;;;7.93;4.75;;;;;;;5.22;100.00;102764.66;4974111;28;20033;-66
2023/05/03 05:57:55;;;;;;;6.25;4.63;;;;;;;5.38;100.00;102769.44;4969738;28;20178;-66
2023/05/03 06:00:20;;;;;;;5.40;4.07;;;;;;;5.55;100.00;102775.09;4978957;28;20026;-66
2023/05/03 06:02:46;;;;;;;6.25;4.03;;;;;;;5.64;100.00;102776.78;4980916;28;20043;-66
2023/05/03 06:05:12;;;;;;;5.60;3.80;;;;;;;5.76;100.00;102776.91;4984574;28;20390;-67
2023/05/03 06:07:37;;;;;;;6.68;4.55;;;;;;;5.85;100.00;102779.31;4984659;28;20046;-66
2023/05/03 06:10:03;;;;;;;6.22;3.83;;;;;;;5.97;100.00;102782.00;4979997;28;20050;-66
2023/05/03 06:12:29;;;;;;;5.25;3.65;;;;;;;6.14;100.00;102779.94;4968205;28;20368;-66
2023/05/03 06:14:54;;;;;;;4.30;3.90;;;;;;;6.33;100.00;102776.31;4972088;28;20097;-66
2023/05/03 06:17:22;;;;;;;8.50;4.22;;;;;;;6.50;100.00;102775.06;4977396;28;20036;-67
2023/05/03 06:19:48;;;;;;;5.10;4.32;;;;;;;6.69;100.00;102769.69;4954517;28;20030;-66
2023/05/03 06:22:13;;;;;;;7.65;3.63;;;;;;;6.86;100.00;102770.13;4972190;28;20064;-67
2023/05/03 06:24:39;;;;;;;7.53;4.03;;;;;;;6.99;100.00;102761.69;4978326;28;20022;-66
2023/05/03 06:27:04;;;;;;;5.25;4.13;;;;;;;7.14;99.74;102767.09;4978958;28;20097;-66
2023/05/03 06:29:30;;;;;;;7.78;3.97;;;;;;;7.28;98.87;102769.88;4987014;28;20018;-66
2023/05/03 06:31:55;;;;;;;8.15;4.22;;;;;;;7.42;99.42;102769.25;4986503;28;20101;-66
2023/05/03 06:34:21;;;;;;;6.32;3.85;;;;;;;7.52;96.99;102764.78;4986776;28;20037;-66
2023/05/03 06:36:47;;;;;;;8.30;4.00;;;;;;;7.73;97.21;102778.41;4965798;28;20030;-67
2023/05/03 06:39:12;;;;;;;6.88;4.47;;;;;;;7.90;96.02;102769.31;4985940;28;20423;-66
2023/05/03 06:41:37;;;;;;;5.20;3.45;;;;;;;8.01;92.98;102764.03;4980967;28;20054;-66
2023/05/03 06:44:03;;;;;;;8.30;4.03;;;;;;;8.14;94.29;102760.69;4983430;28;20030;-67
2023/05/03 06:46:29;;;;;;;6.00;3.47;;;;;;;8.21;90.90;102759.44;4983683;28;20033;-66
2023/05/03 06:48:57;;;;;;;4.28;3.53;;;;;;;8.19;91.16;102754.16;4978178;28;20487;-66
2023/05/03 06:51:26;;;;;;;6.28;3.78;;;;;;;8.35;90.90;102756.16;4977530;28;20045;-66
2023/05/03 06:54:00;;;;;;;6.10;3.67;;;;;;;8.48;88.72;102754.47;4975677;28;20074;-66
2023/05/03 06:56:26;;;;;;;5.22;3.72;;;;;;;8.39;86.48;102753.03;4977547;28;20042;-67
2023/05/03 06:58:52;;;;;;;5.88;3.70;;;;;;;8.58;88.46;102751.75;4986989;28;20030;-66
2023/05/03 07:01:19;;;;;;;6.75;3.70;;;;;;;8.80;89.66;102742.94;4974934;28;20031;-66
2023/05/03 07:03:44;;;;;;;6.57;3.97;;;;;;;8.99;89.58;102742.53;4978069;28;20045;-67
2023/05/03 07:06:10;;;;;;;5.53;3.67;;;;;;;9.23;87.48;102741.53;4974022;28;20479;-66
2023/05/03 07:08:35;;;;;;;6.88;4.18;;;;;;;9.50;86.07;102749.34;4979795;28;20019;-66
2023/05/03 07:11:00;;;;;;;4.95;3.95;;;;;;;9.68;83.11;102749.69;4972848;28;20037;-66
2023/05/03 07:13:25;;;;;;;7.28;3.85;;;;;;;9.49;80.02;102750.16;4978826;28;20371;-67
2023/05/03 07:15:51;;;;;;;7.32;3.50;;;;;;;9.75;82.61;102753.56;4977630;28;20162;-64
2023/05/03 07:18:16;;;;;;;4.43;4.00;;;;;;;10.02;83.16;102753.59;4979458;28;20029;-64
2023/05/03 07:20:41;;;;;;;7.32;4.03;;;;;;;10.36;80.43;102765.22;4979996;28;20472;-64
2023/05/03 07:23:06;;;;;;;8.23;4.22;;;;;;;10.46;76.72;102751.16;4978342;28;20018;-65
2023/05/03 07:25:32;;;;;;;8.48;4.28;;;;;;;10.70;78.83;102750.97;4978727;28;20014;-65
2023/05/03 07:27:58;;;;;;;7.07;3.97;;;;;;;10.90;76.73;102757.34;4973375;28;20533;-64
2023/05/03 07:30:23;;;;;;;5.53;3.58;;;;;;;11.23;76.69;102755.81;4976358;28;20018;-65
2023/05/03 07:32:49;;;;;;;5.93;4.38;;;;;;;11.35;75.81;102747.88;4974425;28;20026;-65
2023/05/03 07:35:15;;;;;;;6.38;3.85;;;;;;;10.98;73.07;102750.06;4978261;28;20034;-64
2023/05/03 07:37:41;;;;;;;5.55;3.80;;;;;;;11.17;70.82;102752.06;4977479;28;20062;-65
2023/05/03 07:40:08;;;;;;;4.65;4.20;;;;;;;11.31;71.39;102743.31;4978233;28;20463;-65
2023/05/03 07:42:33;;;;;;;5.50;3.20;;;;;;;11.22;70.37;102730.69;4978008;28;20026;-65
2023/05/03 07:44:59;;;;;;;5.47;3.42;;;;;;;10.96;69.38;102730.91;4980492;28;20104;-65
2023/05/03 07:47:26;;;;;;;6.72;3.45;;;;;;;11.07;69.60;102733.25;4977996;28;20034;-65
2023/05/03 07:49:52;;;;;;;4.70;3.50;;;;;;;11.09;69.15;102729.03;4982796;28;20022;-65
2023/05/03 07:52:17;;;;;;;6.18;3.35;;;;;;;11.69;71.86;102736.88;4977929;28;20062;-65
2023/05/03 07:54:44;;;;;;;6.35;3.92;;;;;;;11.64;69.06;102739.19;4969332;28;20031;-65
2023/05/03 07:57:10;;;;;;;7.10;4.05;;;;;;;12.06;66.81;102729.38;4969317;28;20211;-65
2023/05/03 07:59:35;;;;;;;5.25;3.08;;;;;;;12.34;64.87;102713.63;4969708;28;20121;-64
2023/05/03 08:02:01;;;;;;;6.00;3.40;;;;;;;12.49;63.00;102713.59;4969352;28;20035;-65
2023/05/03 08:04:26;;;;;;;4.95;2.90;;;;;;;12.67;62.93;102709.28;4969561;28;20062;-65
2023/05/03 08:06:51;;;;;;;5.15;3.25;;;;;;;12.97;61.71;102702.19;4982038;28;20034;-65
2023/05/03 08:09:17;;;;;;;3.92;2.95;;;;;;;13.14;60.98;102703.88;4976162;28;20077;-64
2023/05/03 08:11:43;;;;;;;5.68;2.65;;;;;;;13.01;58.21;102707.56;4975994;28;20023;-67
2023/05/03 08:14:08;;;;;;;4.45;2.55;;;;;;;12.86;60.22;102705.97;4976208;28;20034;-65
2023/05/03 08:16:34;;;;;;;4.80;3.03;;;;;;;13.02;58.25;102693.75;4974976;28;20030;-67
2023/05/03 08:18:59;;;;;;;3.40;3.08;;;;;;;13.35;57.99;102683.25;4980929;28;20113;-66
2023/05/03 08:21:25;;;;;;;4.57;2.80;;;;;;;13.53;57.55;102685.00;4990874;28;20071;-66
2023/05/03 08:23:50;;;;;;;5.35;2.80;;;;;;;13.86;57.54;102682.25;4980382;28;20105;-66
2023/05/03 08:26:16;;;;;;;3.72;3.03;;;;;;;13.93;55.51;102686.94;4985626;28;20046;-67
2023/05/03 08:28:41;;;;;;;3.05;2.70;;;;;;;14.09;57.33;102690.25;4981544;28;20551;-66
2023/05/03 08:31:07;;;;;;;4.43;2.80;;;;;;;14.03;55.05;102692.59;4976303;28;20034;-64
2023/05/03 08:33:32;;;;;;;4.25;2.53;;;;;;;13.96;55.37;102686.19;4984783;28;20082;-64
2023/05/03 08:35:58;;;;;;;3.72;2.70;;;;;;;13.81;55.17;102696.78;4989720;28;20510;-67
2023/05/03 08:38:23;;;;;;;7.07;2.80;;;;;;;13.84;56.13;102686.50;4986151;28;20022;-65
2023/05/03 08:40:53;;;;;;;3.67;2.83;;;;;;;13.79;55.98;102680.19;4977334;28;20069;-65
2023/05/03 08:43:20;;;;;;;3.95;2.70;;;;;;;13.39;54.73;102676.47;4981892;28;20026;-65
2023/05/03 08:45:46;;;;;;;3.90;2.63;;;;;;;13.71;56.99;102681.53;4989109;28;20026;-65
2023/05/03 08:48:12;;;;;;;4.38;2.88;;;;;;;13.79;54.15;102685.38;4985712;28;20154;-65
2023/05/03 08:50:41;;;;;;;6.25;2.60;;;;;;;13.86;55.14;102682.25;4991466;28;20034;-65
2023/05/03 08:53:08;;;;;;;5.13;2.90;;;;;;;13.72;53.38;102678.09;4982955;28;20709;-65
2023/05/03 08:55:33;;;;;;;4.68;3.03;;;;;;;13.45;55.34;102677.66;4981579;28;20022;-66
2023/05/03 08:57:59;;;;;;;3.28;2.80;;;;;;;13.41;53.50;102688.78;4985555;28;20030;-65
2023/05/03 09:00:31;;;;;;;3.92;2.53;;;;;;;13.33;54.57;102695.28;4982609;28;20154;-65
2023/05/03 09:02:57;;;;;;;5.07;2.35;;;;;;;13.26;53.05;102693.22;4977695;28;20158;-65
2023/05/03 09:05:22;;;;;;;4.20;3.00;;;;;;;13.29;54.82;102695.97;4980987;28;20033;-65
2023/05/03 09:08:08;;;;;;;3.95;2.88;;;;;;;13.59;55.85;102692.22;4984434;28;20035;-65
2023/05/03 09:10:37;;;;;;;4.93;3.35;;;;;;;13.65;52.44;102682.13;4982110;28;20062;-65
2023/05/03 09:13:03;;;;;;;4.22;2.65;;;;;;;13.97;53.94;102693.19;4985875;28;20105;-65
2023/05/03 09:15:29;;;;;;;4.78;2.72;;;;;;;13.89;52.71;102690.22;4982549;28;20130;-65
2023/05/03 09:18:18;;;;;;;7.85;2.97;;;;;;;13.76;52.73;102691.34;4982101;28;20073;-65
2023/05/03 09:20:51;;;;;;;4.07;2.38;;;;;;;13.55;52.33;102692.09;4979516;28;20111;-65
2023/05/03 09:23:25;;;;;;;3.28;2.53;;;;;;;13.80;53.34;102697.59;4980617;28;20080;-65
2023/05/03 09:25:51;;;;;;;6.10;2.85;;;;;;;13.98;53.38;102691.47;4981226;28;20031;-65
2023/05/03 09:28:18;;;;;;;3.40;2.47;;;;;;;14.03;52.95;102696.06;4986473;28;20030;-65
2023/05/03 09:30:45;;;;;;;5.57;2.80;;;;;;;13.86;52.32;102687.47;4981925;28;20034;-65
2023/05/03 09:33:11;;;;;;;6.75;3.05;;;;;;;13.36;53.59;102687.66;4981163;28;20471;-65
2023/05/03 09:35:55;;;;;;;5.28;2.67;;;;;;;13.26;53.42;102686.28;4972713;28;20081;-66
2023/05/03 09:38:30;;;;;;;4.78;2.90;;;;;;;13.63;54.90;102687.25;4973445;28;20065;-65
2023/05/03 09:40:56;;;;;;;3.97;2.78;;;;;;;13.76;53.32;102677.44;4964699;28;20418;-65
2023/05/03 09:43:21;;;;;;;4.00;2.83;;;;;;;13.87;55.19;102673.59;4985767;28;20014;-65
2023/05/03 09:45:47;;;;;;;4.18;3.17;;;;;;;13.40;52.80;102676.53;4972680;28;20471;-65
2023/05/03 09:48:13;;;;;;;5.28;2.80;;;;;;;13.71;54.56;102676.31;4982018;28;20019;-65
2023/05/03 09:50:39;;;;;;;3.85;2.65;;;;;;;13.88;52.87;102683.22;4981896;28;20104;-65
2023/05/03 09:53:06;;;;;;;8.15;3.40;;;;;;;14.17;52.88;102682.81;4981296;28;20108;-65
2023/05/03 09:55:36;;;;;;;6.28;3.40;;;;;;;14.26;52.04;102678.03;4977394;28;20101;-65
2023/05/03 09:58:06;;;;;;;3.83;3.03;;;;;;;14.51;52.49;102662.59;4986781;28;20031;-65
2023/05/03 10:00:41;;;;;;;4.25;2.97;;;;;;;14.82;53.94;102663.97;4981048;28;20386;-65
2023/05/03 10:03:09;;;;;;;4.95;2.83;;;;;;;14.75;51.54;102667.13;4979901;28;20118;-65
2023/05/03 10:05:41;;;;;;;3.85;2.65;;;;;;;14.88;51.10;102663.34;4979159;28;20034;-65
2023/05/03 10:08:10;;;;;;;4.10;2.83;;;;;;;14.44;48.49;102666.66;4971765;28;20426;-65
2023/05/03 10:10:39;;;;;;;3.75;2.80;;;;;;;14.55;51.77;102661.91;4982765;28;20029;-65
2023/05/03 10:13:04;;;;;;;3.83;3.30;;;;;;;13.96;49.97;102664.47;4977149;28;20026;-65
2023/05/03 10:15:30;;;;;;;6.18;3.30;;;;;;;14.10;52.02;102666.00;4986115;28;20061;-66
2023/05/03 10:18:01;;;;;;;4.53;3.05;;;;;;;14.32;51.77;102655.66;4976683;28;20291;-65
2023/05/03 10:20:34;;;;;;;5.93;3.08;;;;;;;14.58;51.48;102658.53;4988938;28;20117;-65
2023/05/03 10:23:10;;;;;;;4.53;3.33;;;;;;;14.77;51.13;102660.22;4985175;28;20138;-64
2023/05/03 10:25:37;;;;;;;4.90;3.17;;;;;;;14.73;51.47;102663.56;4979060;28;20019;-64
2023/05/03 10:28:07;;;;;;;4.72;3.20;;;;;;;14.80;51.86;102663.00;4980068;28;20022;-65
2023/05/03 10:30:35;;;;;;;6.10;3.23;;;;;;;14.52;51.66;102662.66;4988589;28;20479;-65
2023/05/03 10:33:12;;;;;;;6.80;3.00;;;;;;;14.61;50.52;102661.28;4982068;28;20118;-65
2023/05/03 10:35:42;;;;;;;4.82;3.17;;;;;;;14.57;49.27;102662.84;4989090;28;20030;-65
2023/05/03 10:38:20;;;;;;;4.13;3.30;;;;;;;14.89;52.58;102666.00;4978641;28;20082;-66
2023/05/03 10:40:46;;;;;;;7.97;3.30;;;;;;;15.06;51.26;102673.69;4972456;28;20027;-65
2023/05/03 10:43:32;;;;;;;5.25;3.60;;;;;;;15.23;51.50;102669.19;4960146;28;20023;-65
2023/05/03 10:45:59;;;;;;;6.35;3.45;;;;;;;15.35;50.29;102660.97;4977067;28;20105;-66
2023/05/03 10:48:25;;;;;;;4.45;3.47;;;;;;;15.24;49.33;102663.13;4984330;28;20048;-66
2023/05/03 10:50:51;;;;;;;7.10;3.67;;;;;;;14.67;49.16;102664.16;4984928;28;20084;-66
2023/05/03 10:53:36;;;;;;;6.53;3.22;;;;;;;14.89;50.65;102660.78;4983650;28;20030;-66
2023/05/03 10:56:04;;;;;;;4.07;3.20;;;;;;;15.18;51.76;102657.63;4969242;28;20459;-66
2023/05/03 10:58:34;;;;;;;4.53;2.95;;;;;;;15.27;50.06;102677.16;4980099;28;20037;-66
2023/05/03 11:01:01;;;;;;;4.85;3.10;;;;;;;15.47;51.00;102652.72;4969455;28;20014;-66
2023/05/03 11:03:42;;;;;;;5.40;3.63;;;;;;;15.76;49.27;102657.34;4975675;28;20039;-66
2023/05/03 11:06:07;;;;;;;6.95;3.30;;;;;;;15.88;49.41;102661.28;4974251;28;20026;-66
2023/05/03 11:08:36;;;;;;;4.95;3.25;;;;;;;15.79;48.83;102662.69;4950473;28;20612;-66
2023/05/03 11:11:08;;;;;;;5.40;2.95;;;;;;;15.73;48.58;102652.00;4980956;28;20526;-66
2023/05/03 11:13:36;;;;;;;4.45;2.88;;;;;;;15.87;52.57;102654.25;4976587;28;20031;-66
2023/05/03 11:16:03;;;;;;;4.20;3.55;;;;;;;15.94;51.44;102645.81;4983449;28;20189;-66
2023/05/03 11:18:28;;;;;;;3.97;3.40;;;;;;;16.01;48.83;102650.47;4986719;28;20038;-66
2023/05/03 11:20:55;;;;;;;3.83;3.42;;;;;;;15.52;47.25;102642.47;4981994;28;20137;-66
2023/05/03 11:23:27;;;;;;;4.05;3.33;;;;;;;15.63;48.96;102626.34;4984443;28;20122;-66
2023/05/03 11:25:53;;;;;;;6.05;3.33;;;;;;;15.70;47.88;102637.06;4979574;28;20030;-66